Time;durP1;ratioP1;P1;durP2;ratioP2;P2;SDS_P1;SDS_P2;PMS_P1;PMS_P2;Temp;Humidity;BMP_temperature;BMP_pressure;BME280_temperature;BME280_humidity;BME280_pressure;Samples;Min_cycle;Max_cycle;Signal;HPM_P1;HPM_P2
2021/12/21 00:00:13;;;;;;;3.70;3.40;;;;;;;3.39;50.77;94643.16;5068104;28;20409;-74
2021/12/21 00:02:41;;;;;;;3.70;3.40;;;;;;;2.67;52.37;94643.16;5067266;28;20183;-74
2021/12/21 00:05:08;;;;;;;8.03;2.07;;;;;;;2.86;52.29;94647.41;5065156;28;20413;-73
2021/12/21 00:07:34;;;;;;;2.50;2.40;;;;;;;3.30;51.07;94653.47;5065309;28;20401;-74
2021/12/21 00:09:59;;;;;;;2.63;2.43;;;;;;;3.11;51.54;94648.44;5066096;28;20178;-74
2021/12/21 00:12:28;;;;;;;2.83;2.73;;;;;;;3.57;50.78;94651.72;5066839;28;20625;-74
2021/12/21 00:15:04;;;;;;;3.27;3.07;;;;;;;3.16;51.72;94660.94;5066549;28;20162;-74
2021/12/21 00:20:13;;;;;;;3.60;3.27;;;;;;;3.59;51.44;94670.50;5066416;28;20432;-75
2021/12/21 00:25:06;;;;;;;3.00;2.70;;;;;;;3.74;50.57;94667.34;5066681;28;20436;-74
2021/12/21 00:27:32;;;;;;;3.23;3.03;;;;;;;3.70;51.05;94667.66;5066504;28;20420;-74
2021/12/21 00:29:57;;;;;;;4.80;4.50;;;;;;;3.82;50.42;94680.34;5065083;28;20216;-74
2021/12/21 00:32:23;;;;;;;3.57;2.50;;;;;;;3.25;51.91;94684.13;5066227;28;20223;-74
2021/12/21 00:34:49;;;;;;;3.70;3.40;;;;;;;3.51;52.19;94678.19;5065935;28;20166;-73
2021/12/21 00:37:14;;;;;;;2.40;2.20;;;;;;;3.02;53.04;94680.34;5065930;28;20978;-74
2021/12/21 00:39:40;;;;;;;4.03;3.67;;;;;;;3.42;52.46;94679.09;5066138;28;20519;-74
2021/12/21 00:42:06;;;;;;;4.93;4.03;;;;;;;3.33;52.86;94676.41;5064794;28;20207;-74
2021/12/21 00:44:31;;;;;;;3.40;3.20;;;;;;;3.66;51.59;94683.63;5064776;28;20626;-74
2021/12/21 00:46:57;;;;;;;3.87;3.37;;;;;;;3.59;52.21;94683.44;5065943;28;20424;-74
2021/12/21 00:49:24;;;;;;;4.80;4.33;;;;;;;3.29;53.29;94690.59;5064703;28;20292;-74
2021/12/21 00:51:49;;;;;;;2.67;2.43;;;;;;;3.17;53.29;94696.97;5064473;28;20175;-74
2021/12/21 00:54:16;;;;;;;4.17;3.60;;;;;;;3.28;53.24;94695.94;5065777;28;20417;-74
2021/12/21 00:56:42;;;;;;;3.13;3.00;;;;;;;2.78;55.13;94686.88;5066022;28;20171;-74
2021/12/21 00:59:08;;;;;;;4.97;2.93;;;;;;;3.04;54.26;94686.19;5064620;28;20456;-74
2021/12/21 01:01:36;;;;;;;9.93;4.10;;;;;;;3.25;54.50;94686.69;5065739;28;20197;-74
2021/12/21 01:04:07;;;;;;;3.83;3.50;;;;;;;3.28;53.62;94683.84;5064701;28;20417;-74
2021/12/21 01:11:38;;;;;;;4.07;3.67;;;;;;;3.47;53.86;94687.19;5065746;28;20235;-74
2021/12/21 01:19:16;;;;;;;4.90;4.07;;;;;;;2.58;56.88;94690.53;5065380;28;20428;-74
2021/12/21 01:24:32;;;;;;;3.27;3.00;;;;;;;2.53;57.21;94688.41;5065441;28;20462;-74
2021/12/21 01:29:48;;;;;;;4.20;3.90;;;;;;;2.80;56.54;94686.75;5065555;28;20420;-74
2021/12/21 01:34:48;;;;;;;4.57;3.63;;;;;;;2.71;55.95;94672.91;5065121;28;20923;-74
2021/12/21 01:50:17;;;;;;;3.87;3.43;;;;;;;2.65;52.21;94699.34;5065124;28;20452;-74
2021/12/21 01:52:43;;;;;;;3.10;2.10;;;;;;;2.33;51.92;94703.97;5063495;28;20425;-74
2021/12/21 01:55:08;;;;;;;3.47;3.07;;;;;;;2.49;51.28;94682.69;5064725;28;20190;-75
2021/12/21 01:57:34;;;;;;;5.10;4.00;;;;;;;2.84;50.76;94696.63;5063456;28;20177;-74
2021/12/21 01:59:59;;;;;;;6.30;3.20;;;;;;;2.67;51.31;94684.50;5063234;28;20182;-74
2021/12/21 02:02:25;;;;;;;3.60;3.30;;;;;;;3.05;50.32;94690.38;5063621;28;20186;-73
2021/12/21 02:04:50;;;;;;;3.50;3.30;;;;;;;2.69;50.76;94683.41;5064738;28;20236;-74
2021/12/21 02:07:16;;;;;;;3.83;3.37;;;;;;;3.02;50.12;94685.53;5064651;28;20179;-73
2021/12/21 02:09:42;;;;;;;3.73;3.37;;;;;;;2.21;51.42;94687.03;5063171;28;20241;-74
2021/12/21 02:12:11;;;;;;;3.97;2.60;;;;;;;2.42;51.27;94689.38;5064606;28;20222;-73
2021/12/21 02:14:38;;;;;;;3.97;3.63;;;;;;;2.95;49.93;94687.88;5064409;28;20196;-73
2021/12/21 02:20:17;;;;;;;2.07;1.93;;;;;;;2.44;50.22;94681.50;5064859;28;20429;-74
2021/12/21 02:22:49;;;;;;;2.10;2.00;;;;;;;2.33;50.12;94682.50;5068201;28;20463;-73
2021/12/21 02:30:26;;;;;;;2.38;2.25;;;;;;;2.57;49.58;94679.41;5068808;28;20193;-75
2021/12/21 02:32:52;;;;;;;2.03;1.93;;;;;;;2.59;49.78;94687.00;5068692;28;20175;-74
2021/12/21 02:35:18;;;;;;;2.77;2.57;;;;;;;2.88;49.58;94685.06;5068882;28;20431;-74
2021/12/21 02:37:44;;;;;;;3.23;3.03;;;;;;;2.93;48.83;94685.44;5068477;28;20445;-74
2021/12/21 02:40:10;;;;;;;2.45;2.25;;;;;;;3.19;48.41;94689.88;5100604;28;20170;-74
2021/12/21 02:42:36;;;;;;;2.50;2.40;;;;;;;3.12;48.46;94694.81;5067324;28;20235;-74
2021/12/21 02:45:01;;;;;;;1.27;1.27;;;;;;;2.72;48.86;94688.28;5068321;28;20417;-74
2021/12/21 02:47:27;;;;;;;1.97;1.87;;;;;;;2.54;49.51;94690.84;5068686;28;20289;-74
2021/12/21 02:49:52;;;;;;;2.40;2.20;;;;;;;3.39;48.34;94694.91;5066908;28;20175;-75
2021/12/21 02:52:18;;;;;;;2.37;2.17;;;;;;;3.16;47.88;94695.34;5066907;28;20178;-74
2021/12/21 02:54:43;;;;;;;2.47;1.97;;;;;;;3.07;48.60;94691.88;5067077;28;20185;-74
2021/12/21 02:57:09;;;;;;;2.10;2.00;;;;;;;3.12;48.33;94701.78;5068085;28;20178;-74
2021/12/21 02:59:34;;;;;;;1.97;1.83;;;;;;;2.85;48.44;94700.84;5067835;28;20171;-74
2021/12/21 03:02:00;;;;;;;2.93;2.73;;;;;;;2.61;49.42;94696.22;5066592;28;20207;-74
2021/12/21 03:04:26;;;;;;;2.63;2.47;;;;;;;3.39;47.88;94705.25;5067736;28;20231;-74
2021/12/21 03:11:56;;;;;;;2.60;2.40;;;;;;;3.26;47.60;94700.44;5068134;28;20401;-74
2021/12/21 03:14:25;;;;;;;1.70;1.60;;;;;;;2.74;48.65;94706.22;5068011;28;20212;-74
2021/12/21 03:16:52;;;;;;;3.13;2.83;;;;;;;3.15;48.23;94717.00;5067750;28;20439;-74
2021/12/21 03:19:17;;;;;;;2.50;1.40;;;;;;;2.68;48.94;94696.47;5066560;28;20447;-74
2021/12/21 03:21:43;;;;;;;2.80;2.40;;;;;;;2.83;48.68;94707.94;5066290;28;20485;-74
2021/12/21 03:24:09;;;;;;;2.30;2.00;;;;;;;2.63;48.92;94709.00;5067584;28;20167;-73
2021/12/21 03:26:36;;;;;;;2.43;1.60;;;;;;;2.52;49.09;94702.25;5066227;28;20170;-74
2021/12/21 03:29:03;;;;;;;2.40;2.20;;;;;;;2.68;49.22;94707.63;5067442;28;20413;-73
2021/12/21 03:31:29;;;;;;;1.77;1.67;;;;;;;2.63;48.42;94709.00;5067199;28;20409;-74
2021/12/21 03:33:54;;;;;;;2.17;1.97;;;;;;;2.67;48.92;94694.84;5067410;28;20197;-74
2021/12/21 03:36:20;;;;;;;2.10;2.00;;;;;;;2.59;49.12;94689.59;5066208;28;20196;-74
2021/12/21 03:38:54;;;;;;;2.33;2.20;;;;;;;2.67;48.99;94695.63;5065848;28;20253;-73
2021/12/21 03:41:20;;;;;;;1.67;1.60;;;;;;;2.96;48.08;94705.03;5067023;28;20601;-74
2021/12/21 03:43:46;;;;;;;2.22;2.03;;;;;;;2.77;48.10;94695.63;5065983;28;20177;-74
2021/12/21 03:46:14;;;;;;;1.03;1.03;;;;;;;2.62;48.08;94713.38;5065840;28;20175;-73
2021/12/21 03:48:42;;;;;;;1.90;1.80;;;;;;;2.57;47.92;94719.91;5065640;28;20435;-73
2021/12/21 03:51:09;;;;;;;2.35;2.15;;;;;;;3.14;47.04;94723.13;5067182;28;20409;-73
2021/12/21 03:53:35;;;;;;;1.43;1.33;;;;;;;3.04;46.80;94714.63;5065581;28;20222;-74
2021/12/21 03:58:32;;;;;;;1.92;1.80;;;;;;;2.86;46.79;94720.56;5066854;28;20218;-74
2021/12/21 04:00:57;;;;;;;2.37;2.23;;;;;;;2.95;47.03;94725.84;5065460;28;20218;-74
2021/12/21 04:03:23;;;;;;;1.83;1.73;;;;;;;2.88;46.65;94725.59;5066885;28;20175;-73
2021/12/21 04:05:48;;;;;;;1.57;1.47;;;;;;;2.65;46.79;94735.50;5065694;28;20183;-74
2021/12/21 04:08:13;;;;;;;1.60;1.50;;;;;;;2.97;46.41;94740.22;5065479;28;20530;-73
2021/12/21 04:10:39;;;;;;;1.90;1.60;;;;;;;2.65;46.72;94740.66;5066909;28;20178;-73
2021/12/21 04:13:09;;;;;;;1.83;1.37;;;;;;;2.84;46.35;94742.34;5066555;28;20201;-74
2021/12/21 04:15:42;;;;;;;2.80;2.03;;;;;;;2.94;46.53;94737.94;5066762;28;20192;-73
2021/12/21 04:18:07;;;;;;;2.27;2.17;;;;;;;3.10;45.66;94732.13;5065155;28;20401;-73
2021/12/21 04:20:33;;;;;;;2.10;1.70;;;;;;;3.10;45.91;94742.47;5066211;28;20483;-74
2021/12/21 04:22:58;;;;;;;2.10;2.00;;;;;;;3.07;45.94;94742.75;5065118;28;20202;-74
2021/12/21 04:25:24;;;;;;;1.40;1.40;;;;;;;2.51;46.41;94742.78;5065041;28;20206;-74
2021/12/21 04:27:49;;;;;;;1.60;1.50;;;;;;;2.71;45.77;94732.34;5065075;28;20213;-74
2021/12/21 04:30:17;;;;;;;1.93;1.83;;;;;;;3.03;45.53;94744.00;5065091;28;20249;-74
2021/12/21 04:32:42;;;;;;;1.40;1.30;;;;;;;2.83;45.85;94738.94;5066529;28;20166;-74
2021/12/21 04:35:09;;;;;;;1.93;1.73;;;;;;;2.97;45.87;94747.97;5064716;28;20425;-74
2021/12/21 04:37:41;;;;;;;1.80;1.70;;;;;;;3.25;44.82;94743.59;5066395;28;20163;-73
2021/12/21 04:40:12;;;;;;;1.97;1.40;;;;;;;2.82;45.38;94737.31;5066071;28;20424;-74
2021/12/21 04:42:38;;;;;;;1.10;1.00;;;;;;;2.63;45.63;94745.16;5064601;28;20451;-74
2021/12/21 04:45:04;;;;;;;2.30;2.03;;;;;;;2.65;46.02;94744.06;5063661;28;20421;-74
2021/12/21 04:47:30;;;;;;;2.90;2.40;;;;;;;2.85;45.37;94752.53;5061939;28;20180;-74
2021/12/21 04:49:55;;;;;;;2.20;1.20;;;;;;;2.43;45.36;94747.00;5046107;28;20468;-73
2021/12/21 04:52:21;;;;;;;1.60;1.50;;;;;;;2.36;46.03;94728.69;5065746;28;20638;-73
2021/12/21 04:54:46;;;;;;;1.97;1.53;;;;;;;2.65;45.41;94743.25;5064365;28;20251;-73
2021/12/21 04:57:11;;;;;;;3.00;1.80;;;;;;;2.54;45.36;94752.00;5057311;28;20241;-74
2021/12/21 04:59:37;;;;;;;1.33;1.23;;;;;;;2.74;44.83;94763.06;5045730;28;20179;-73
2021/12/21 05:02:03;;;;;;;1.50;1.40;;;;;;;2.77;44.97;94761.94;5045626;28;20274;-73
2021/12/21 05:04:28;;;;;;;1.47;1.37;;;;;;;2.41;45.59;94773.00;5044182;28;20586;-73
2021/12/21 05:06:54;;;;;;;2.00;1.60;;;;;;;2.50;46.19;94766.97;5045608;28;20616;-73
2021/12/21 05:09:28;;;;;;;1.63;1.53;;;;;;;2.66;45.11;94774.13;5045405;28;20160;-73
2021/12/21 05:12:02;;;;;;;6.70;1.77;;;;;;;2.49;45.60;94774.88;5044296;28;20199;-73
2021/12/21 05:14:28;;;;;;;4.28;1.85;;;;;;;2.38;46.97;94781.00;5045527;28;20394;-73
2021/12/21 05:16:54;;;;;;;1.80;1.70;;;;;;;2.45;46.44;94774.34;5043961;28;20222;-73
2021/12/21 05:19:19;;;;;;;4.00;2.80;;;;;;;2.63;46.09;94782.13;5077365;28;20468;-73
2021/12/21 05:21:44;;;;;;;2.40;2.13;;;;;;;2.38;47.32;94768.09;5045176;28;20207;-73
2021/12/21 05:24:10;;;;;;;2.13;2.00;;;;;;;2.18;47.04;94772.50;5045251;28;20179;-73
2021/12/21 05:26:37;;;;;;;3.10;2.80;;;;;;;2.32;47.52;94773.84;5045384;28;20183;-74
2021/12/21 05:29:04;;;;;;;3.35;2.55;;;;;;;2.02;48.31;94783.41;5045493;28;20171;-73
2021/12/21 05:31:29;;;;;;;7.72;3.00;;;;;;;2.13;48.03;94777.28;5045401;28;20163;-74
2021/12/21 05:33:55;;;;;;;3.63;3.13;;;;;;;2.46;47.25;94770.78;5045243;28;20290;-73
2021/12/21 05:36:21;;;;;;;4.57;3.10;;;;;;;2.42;47.36;94774.59;5045059;28;20163;-73
2021/12/21 05:38:51;;;;;;;4.05;3.30;;;;;;;2.26;48.24;94774.41;5049766;28;20178;-73
2021/12/21 05:41:25;;;;;;;4.45;2.70;;;;;;;2.53;47.47;94781.38;5065032;28;20190;-73
2021/12/21 05:43:51;;;;;;;3.58;3.28;;;;;;;2.22;48.39;94788.50;5063404;28;20170;-74
2021/12/21 05:46:17;;;;;;;3.30;3.00;;;;;;;2.70;47.31;94792.72;5065202;28;20261;-73
2021/12/21 05:48:43;;;;;;;3.40;2.97;;;;;;;2.43;48.46;94791.75;5065050;28;20194;-73
2021/12/21 05:51:08;;;;;;;2.30;2.20;;;;;;;2.08;49.91;94795.75;5063527;28;20607;-74
2021/12/21 05:53:34;;;;;;;2.83;2.63;;;;;;;2.62;48.56;94800.34;5064859;28;20304;-73
2021/12/21 05:55:59;;;;;;;2.30;2.20;;;;;;;2.32;49.52;94805.63;5065077;28;20224;-73
2021/12/21 05:58:25;;;;;;;2.40;2.10;;;;;;;2.26;49.39;94805.38;5064836;28;20174;-73
2021/12/21 06:00:50;;;;;;;2.30;2.20;;;;;;;2.30;50.00;94811.88;5063081;28;20230;-73
2021/12/21 06:03:16;;;;;;;3.50;3.20;;;;;;;2.39;49.32;94816.22;5063397;28;20170;-73
2021/12/21 06:05:43;;;;;;;2.53;2.33;;;;;;;2.17;50.32;94821.69;5063395;28;20178;-74
2021/12/21 06:08:09;;;;;;;3.60;3.40;;;;;;;2.73;48.96;94820.84;5063297;28;20170;-73
2021/12/21 06:10:39;;;;;;;3.15;2.85;;;;;;;2.48;49.41;94823.09;5056561;28;20436;-73
2021/12/21 06:26:12;;;;;;;3.22;2.33;;;;;;;2.95;47.88;94855.06;5044799;28;20171;-74
2021/12/21 06:28:39;;;;;;;3.28;3.05;;;;;;;2.65;48.38;94856.91;5043406;28;20182;-74
2021/12/21 06:31:04;;;;;;;4.63;2.75;;;;;;;2.80;48.55;94867.63;5044530;28;20275;-74
2021/12/21 06:33:30;;;;;;;5.07;3.40;;;;;;;2.73;48.54;94869.94;5044737;28;20535;-73
2021/12/21 06:35:56;;;;;;;3.03;2.83;;;;;;;2.66;48.55;94876.66;5044901;28;20187;-73
2021/12/21 06:38:22;;;;;;;2.00;1.83;;;;;;;2.60;49.15;94880.59;5043376;28;20426;-74
2021/12/21 06:40:48;;;;;;;3.47;3.20;;;;;;;2.89;48.21;94875.34;5044484;28;20199;-74
2021/12/21 06:43:15;;;;;;;2.95;2.75;;;;;;;3.16;47.69;94881.50;5044366;28;20413;-74
2021/12/21 06:45:47;;;;;;;2.73;2.23;;;;;;;2.44;48.99;94873.41;5044227;28;20229;-72
2021/12/21 06:53:40;;;;;;;2.37;2.17;;;;;;;2.66;48.86;94885.19;5044816;28;20773;-73
2021/12/21 06:56:07;;;;;;;4.72;2.88;;;;;;;2.70;48.59;94893.50;5044242;28;20419;-74
2021/12/21 06:58:33;;;;;;;3.20;2.83;;;;;;;3.00;48.36;94891.63;5044406;28;20546;-74
2021/12/21 07:01:00;;;;;;;3.87;3.33;;;;;;;2.99;48.63;94890.81;5042868;28;20469;-73
2021/12/21 07:03:26;;;;;;;4.28;2.70;;;;;;;2.76;49.26;94881.78;5044297;28;20885;-73
2021/12/21 07:05:52;;;;;;;5.20;3.92;;;;;;;3.04;48.31;94885.22;5044298;28;20198;-73
2021/12/21 07:08:23;;;;;;;6.17;3.03;;;;;;;2.86;48.58;94891.13;5045462;28;20190;-73
2021/12/21 07:11:11;;;;;;;3.97;3.70;;;;;;;2.87;49.10;94897.13;5065702;28;20949;-73
2021/12/21 07:19:05;;;;;;;2.67;2.57;;;;;;;2.81;48.83;94898.50;5050581;28;20428;-74
2021/12/21 07:21:31;;;;;;;2.40;2.20;;;;;;;2.77;48.27;94885.97;5067231;28;20465;-74
2021/12/21 07:23:56;;;;;;;2.67;2.27;;;;;;;2.88;48.18;94907.31;5054897;28;20179;-73
2021/12/21 07:26:23;;;;;;;4.03;2.83;;;;;;;2.54;48.34;94905.22;5047752;28;20563;-73
2021/12/21 07:28:48;;;;;;;2.17;2.07;;;;;;;2.78;47.87;94903.94;5047564;28;20182;-73
2021/12/21 07:31:14;;;;;;;3.13;2.40;;;;;;;2.97;47.91;94913.41;5046258;28;20180;-73
2021/12/21 07:33:40;;;;;;;3.77;3.07;;;;;;;2.69;48.37;94909.94;5047595;28;20174;-73
2021/12/21 07:36:05;;;;;;;2.47;2.30;;;;;;;2.63;48.09;94913.06;5046094;28;20325;-73
2021/12/21 07:38:32;;;;;;;2.50;2.30;;;;;;;2.61;48.86;94915.78;5045704;28;20270;-73
2021/12/21 07:41:00;;;;;;;2.22;2.03;;;;;;;2.53;48.52;94920.84;5047079;28;20290;-74
2021/12/21 07:43:25;;;;;;;2.80;1.80;;;;;;;2.81;48.57;94919.16;5064493;28;20296;-74
2021/12/21 07:45:51;;;;;;;4.07;2.27;;;;;;;2.85;48.05;94925.69;5065445;28;20527;-74
2021/12/21 07:48:18;;;;;;;2.03;1.93;;;;;;;2.81;48.32;94919.16;5064462;28;20243;-73
2021/12/21 07:50:46;;;;;;;1.90;1.80;;;;;;;3.06;48.25;94916.91;5066795;28;20436;-74
2021/12/21 07:53:16;;;;;;;2.63;2.43;;;;;;;3.24;47.13;94910.03;5067035;28;20466;-74
2021/12/21 07:55:41;;;;;;;2.60;2.40;;;;;;;2.92;48.21;94921.59;5067205;28;20428;-73
2021/12/21 07:58:07;;;;;;;4.27;2.80;;;;;;;3.07;47.12;94918.53;5046953;28;20461;-74
2021/12/21 08:00:33;;;;;;;3.50;2.70;;;;;;;3.16;47.12;94912.53;5046808;28;20524;-73
2021/12/21 08:02:59;;;;;;;4.17;2.90;;;;;;;2.95;48.20;94927.44;5046610;28;20270;-74
2021/12/21 08:05:30;;;;;;;2.00;1.90;;;;;;;2.93;47.65;94943.88;5057258;28;20193;-73
2021/12/21 08:08:04;;;;;;;4.47;2.07;;;;;;;2.79;47.82;94952.09;5067100;28;20416;-73
2021/12/21 08:10:42;;;;;;;3.70;2.17;;;;;;;3.09;47.32;94953.66;5066896;28;20437;-73
2021/12/21 08:13:07;;;;;;;1.90;1.80;;;;;;;3.22;46.91;94947.34;5065154;28;20415;-73
2021/12/21 08:15:33;;;;;;;2.80;2.50;;;;;;;3.43;46.49;94952.28;5065192;28;20532;-73
2021/12/21 08:17:58;;;;;;;6.73;2.60;;;;;;;3.80;45.42;94947.06;5065543;28;20428;-74
2021/12/21 08:20:26;;;;;;;2.70;2.50;;;;;;;4.13;44.96;94946.59;5063960;28;20190;-73
2021/12/21 08:22:52;;;;;;;2.73;2.50;;;;;;;4.39;44.37;94955.25;5065235;28;20260;-73
2021/12/21 08:25:18;;;;;;;4.53;2.90;;;;;;;4.07;45.09;94954.00;5066694;28;20421;-74
2021/12/21 08:27:44;;;;;;;2.83;2.60;;;;;;;4.14;44.31;94974.16;5065093;28;20471;-73
2021/12/21 08:30:09;;;;;;;5.10;3.00;;;;;;;3.76;45.44;94968.22;5066423;28;20178;-73
2021/12/21 08:32:35;;;;;;;2.70;2.20;;;;;;;3.76;45.79;94969.03;5065748;28;20251;-73
2021/12/21 08:35:00;;;;;;;2.57;2.37;;;;;;;3.67;45.66;94964.72;5066065;28;20413;-73
2021/12/21 08:37:27;;;;;;;1.87;1.77;;;;;;;3.08;46.74;94969.28;5066371;28;20198;-73
2021/12/21 08:39:52;;;;;;;2.33;2.23;;;;;;;3.59;46.00;94973.19;5066744;28;20174;-74
2021/12/21 08:42:18;;;;;;;2.20;2.00;;;;;;;4.15;44.96;94986.91;5066508;28;20479;-74
2021/12/21 08:44:46;;;;;;;2.40;2.20;;;;;;;3.75;45.46;94976.94;5066538;28;20194;-74
2021/12/21 08:47:13;;;;;;;4.00;2.77;;;;;;;3.92;44.44;94968.41;5065150;28;20194;-74
2021/12/21 08:49:38;;;;;;;2.23;2.03;;;;;;;4.02;44.49;94976.94;5064928;28;20444;-74
2021/12/21 08:52:04;;;;;;;3.23;2.83;;;;;;;3.97;44.86;94973.16;5065047;28;20409;-74
2021/12/21 08:54:29;;;;;;;2.40;2.20;;;;;;;3.87;44.54;94968.00;5065950;28;20198;-74
2021/12/21 08:56:55;;;;;;;2.03;1.70;;;;;;;3.45;43.54;94958.13;5066023;28;20409;-74
2021/12/21 08:59:20;;;;;;;2.50;2.30;;;;;;;3.38;44.06;94978.59;5060525;28;20210;-74
2021/12/21 09:01:47;;;;;;;1.53;1.43;;;;;;;3.22;44.29;94984.34;5046590;28;20187;-73
2021/12/21 09:04:15;;;;;;;2.10;1.60;;;;;;;3.02;44.57;94985.38;5045052;28;20191;-74
2021/12/21 09:06:41;;;;;;;3.63;2.03;;;;;;;3.55;43.08;94974.44;5044812;28;20530;-74
2021/12/21 09:09:06;;;;;;;2.90;2.00;;;;;;;3.57;43.55;94977.72;5044639;28;20426;-73
2021/12/21 09:11:32;;;;;;;1.57;1.47;;;;;;;3.19;43.54;94973.47;5045786;28;20258;-73
2021/12/21 09:13:57;;;;;;;2.30;2.10;;;;;;;3.13;44.09;94962.75;5044297;28;20206;-73
2021/12/21 09:16:23;;;;;;;2.40;2.20;;;;;;;3.46;43.25;94976.09;5045990;28;20176;-73
2021/12/21 09:18:48;;;;;;;4.57;2.70;;;;;;;3.51;43.28;94962.75;5045563;28;20195;-74
2021/12/21 09:21:14;;;;;;;1.83;1.73;;;;;;;3.21;43.85;94969.00;5043983;28;20249;-73
2021/12/21 09:23:41;;;;;;;3.10;2.80;;;;;;;3.29;44.77;94975.06;5045320;28;20223;-73
2021/12/21 09:26:07;;;;;;;4.80;2.70;;;;;;;3.12;43.61;94955.13;5045385;28;20433;-74
2021/12/21 09:28:32;;;;;;;1.77;1.60;;;;;;;3.52;43.29;94977.31;5045524;28;20414;-74
2021/12/21 09:30:58;;;;;;;1.63;1.23;;;;;;;2.98;43.79;94963.31;5045281;28;20198;-73
2021/12/21 09:33:24;;;;;;;1.60;1.50;;;;;;;3.36;43.01;94980.50;5044165;28;20182;-73
2021/12/21 09:35:52;;;;;;;2.60;2.47;;;;;;;3.82;42.37;94981.41;5041175;28;20194;-74
2021/12/21 09:38:18;;;;;;;1.80;1.70;;;;;;;3.77;42.39;94978.41;5054646;28;20175;-74
2021/12/21 09:40:43;;;;;;;1.60;1.50;;;;;;;3.76;42.63;94987.16;5047579;28;20623;-74
2021/12/21 09:43:11;;;;;;;2.10;1.97;;;;;;;4.37;41.75;94985.69;5043306;28;20418;-74
2021/12/21 09:45:38;;;;;;;2.40;2.20;;;;;;;3.53;43.99;94968.59;5043477;28;20955;-74
2021/12/21 09:48:04;;;;;;;3.80;2.90;;;;;;;3.54;44.06;94998.69;5077034;28;20414;-73
2021/12/21 09:50:30;;;;;;;4.27;2.17;;;;;;;3.19;44.79;94994.16;5044432;28;20875;-74
2021/12/21 09:52:56;;;;;;;1.50;1.40;;;;;;;2.59;45.29;94991.81;5077196;28;20421;-74
2021/12/21 09:55:23;;;;;;;3.00;2.63;;;;;;;3.04;44.85;94986.84;5089135;28;21028;-73
2021/12/21 09:57:51;;;;;;;2.27;2.00;;;;;;;2.62;43.69;94955.34;5064745;28;20482;-74
2021/12/21 10:00:21;;;;;;;2.30;1.60;;;;;;;2.98;44.09;94987.41;5053580;28;20447;-73
2021/12/21 10:02:46;;;;;;;2.40;2.20;;;;;;;2.47;44.25;94994.53;5043314;28;20905;-73
2021/12/21 10:05:17;;;;;;;5.47;2.17;;;;;;;3.36;43.81;95001.19;5044710;28;20489;-73
2021/12/21 10:07:43;;;;;;;2.00;1.90;;;;;;;3.41;42.76;95000.78;5060670;28;20216;-74
2021/12/21 10:10:14;;;;;;;1.40;1.30;;;;;;;3.10;42.22;94964.78;5062941;28;20436;-74
2021/12/21 10:12:45;;;;;;;1.00;1.00;;;;;;;3.68;41.49;94977.53;5062954;28;20178;-73
2021/12/21 10:15:16;;;;;;;2.60;2.40;;;;;;;4.49;40.83;94981.09;5062675;28;20432;-73
2021/12/21 10:17:58;;;;;;;2.00;1.80;;;;;;;4.89;40.50;94984.97;5062975;28;20414;-73
2021/12/21 10:20:37;;;;;;;2.10;2.00;;;;;;;5.44;39.56;94981.28;5062669;28;20490;-75
2021/12/21 10:23:16;;;;;;;2.53;2.20;;;;;;;4.88;40.47;94963.44;5064726;28;20408;-74
2021/12/21 10:25:49;;;;;;;3.20;2.80;;;;;;;5.11;40.00;94981.09;5063474;28;20508;-73
2021/12/21 10:28:48;;;;;;;3.40;2.30;;;;;;;4.22;41.37;94987.16;5063402;28;20413;-73
2021/12/21 10:31:24;;;;;;;6.60;2.70;;;;;;;4.19;42.06;94990.03;5055492;28;20433;-74
2021/12/21 10:33:51;;;;;;;3.60;2.10;;;;;;;3.69;42.82;94983.50;5044341;28;20408;-74
2021/12/21 10:36:17;;;;;;;2.80;1.80;;;;;;;3.66;42.78;94984.63;5044613;28;20422;-73
2021/12/21 10:38:50;;;;;;;2.13;1.80;;;;;;;2.67;45.80;94984.19;5042720;28;20571;-74
2021/12/21 10:41:20;;;;;;;2.53;2.03;;;;;;;3.48;44.11;94994.88;5042936;28;20493;-74
2021/12/21 10:44:06;;;;;;;4.13;2.50;;;;;;;3.15;44.81;95000.56;5063295;28;20473;-73
2021/12/21 10:46:37;;;;;;;2.10;1.43;;;;;;;2.89;45.28;94999.38;5061793;28;20425;-74
2021/12/21 10:49:15;;;;;;;3.00;2.73;;;;;;;3.28;44.27;94994.16;5066448;28;20409;-74
2021/12/21 10:52:05;;;;;;;2.23;2.13;;;;;;;3.42;44.38;95002.41;5066426;28;20443;-74
2021/12/21 10:54:36;;;;;;;2.83;2.50;;;;;;;3.54;44.72;94997.88;5067985;28;20500;-74
2021/12/21 10:57:11;;;;;;;3.33;2.03;;;;;;;3.98;43.63;94996.28;5067740;28;20761;-74
2021/12/21 10:59:42;;;;;;;2.30;1.40;;;;;;;3.33;44.48;94984.19;5063876;28;20406;-74
2021/12/21 11:02:14;;;;;;;2.33;2.20;;;;;;;3.40;43.97;94986.22;5059942;28;20571;-74
2021/12/21 11:04:49;;;;;;;1.93;1.83;;;;;;;3.10;45.39;94988.06;5067748;28;20401;-73
2021/12/21 11:10:00;;;;;;;1.70;1.60;;;;;;;3.04;44.72;94970.53;5067871;28;20540;-73
2021/12/21 11:12:27;;;;;;;2.17;2.07;;;;;;;3.08;43.77;94961.53;5067333;28;20476;-74
2021/12/21 11:14:55;;;;;;;2.70;2.50;;;;;;;2.79;43.98;94983.09;5084024;28;20428;-74
2021/12/21 11:17:22;;;;;;;2.83;2.23;;;;;;;2.78;44.38;94965.94;5072029;28;20424;-74
2021/12/21 11:19:51;;;;;;;4.85;2.95;;;;;;;3.36;43.70;94984.84;5065879;28;21194;-73
2021/12/21 11:22:20;;;;;;;2.33;2.20;;;;;;;2.73;44.55;94970.69;5066976;28;20226;-74
2021/12/21 11:24:47;;;;;;;3.25;2.60;;;;;;;2.81;45.82;94976.03;5065631;28;20417;-74
2021/12/21 11:27:15;;;;;;;2.27;2.17;;;;;;;2.61;46.14;94975.22;5062728;28;20190;-74
2021/12/21 11:29:41;;;;;;;2.40;2.30;;;;;;;2.39;46.30;94978.06;5046155;28;20880;-74
2021/12/21 11:32:08;;;;;;;2.17;2.03;;;;;;;2.86;44.62;94970.41;5045547;28;20414;-74
2021/12/21 11:34:36;;;;;;;3.77;2.30;;;;;;;2.72;44.87;94971.66;5045471;28;20417;-74
2021/12/21 11:37:21;;;;;;;5.10;3.63;;;;;;;2.39;44.77;94968.56;5059532;28;20417;-74
2021/12/21 11:39:47;;;;;;;2.10;1.92;;;;;;;1.70;44.97;94967.66;5067149;28;20599;-74
2021/12/21 11:42:51;;;;;;;2.90;2.00;;;;;;;2.28;43.57;94958.38;5066887;28;20204;-74
2021/12/21 11:45:23;;;;;;;2.93;2.60;;;;;;;2.85;42.44;94976.56;5036260;28;20178;-74
2021/12/21 11:48:07;;;;;;;3.43;2.50;;;;;;;2.95;41.96;94976.53;5065418;28;20420;-74
2021/12/21 11:50:33;;;;;;;3.97;2.40;;;;;;;2.60;41.34;94970.16;5066500;28;20431;-74
2021/12/21 11:53:08;;;;;;;2.37;2.27;;;;;;;3.12;40.56;94957.72;5061438;28;20418;-74
2021/12/21 11:55:40;;;;;;;1.97;1.77;;;;;;;3.21;40.18;94974.97;5059840;28;20420;-74
2021/12/21 11:58:43;;;;;;;1.70;1.60;;;;;;;3.26;40.31;94961.59;5065197;28;20437;-73
2021/12/21 12:01:23;;;;;;;2.57;2.37;;;;;;;4.14;38.09;94974.94;5031574;28;20530;-73
2021/12/21 12:04:06;;;;;;;2.37;2.17;;;;;;;4.85;38.30;94973.28;5065286;28;20744;-74
2021/12/21 12:06:52;;;;;;;1.57;1.53;;;;;;;4.69;37.60;94963.63;5066768;28;20406;-73
2021/12/21 12:09:21;;;;;;;2.40;2.13;;;;;;;3.59;39.86;94964.63;5066382;28;20424;-73
2021/12/21 12:11:47;;;;;;;2.50;2.30;;;;;;;3.82;39.59;94973.63;5065910;28;21144;-72
2021/12/21 12:14:17;;;;;;;2.93;2.27;;;;;;;3.78;39.21;94979.25;5065350;28;20417;-74
2021/12/21 12:16:54;;;;;;;2.20;2.10;;;;;;;3.84;39.72;94989.03;5066099;28;20170;-73
2021/12/21 12:19:26;;;;;;;3.00;2.73;;;;;;;4.16;38.81;94985.97;5065826;28;20420;-74
2021/12/21 12:21:54;;;;;;;2.57;2.37;;;;;;;4.16;38.77;94998.13;5059920;28;20476;-73
2021/12/21 12:24:22;;;;;;;2.80;2.60;;;;;;;3.70;38.87;94998.91;5060281;28;20432;-73
2021/12/21 12:27:22;;;;;;;3.53;2.23;;;;;;;3.47;38.73;95000.19;5059146;28;20448;-72
2021/12/21 12:29:52;;;;;;;1.87;1.67;;;;;;;3.29;38.72;95000.94;5043702;28;20896;-73
2021/12/21 12:32:49;;;;;;;2.80;2.60;;;;;;;3.67;38.39;95014.69;5053297;28;20425;-72
2021/12/21 12:35:24;;;;;;;2.30;1.80;;;;;;;2.57;41.28;94999.69;5050860;28;20971;-72
2021/12/21 12:37:53;;;;;;;1.83;1.27;;;;;;;2.42;41.90;95017.34;5063191;28;20445;-74
2021/12/21 12:40:26;;;;;;;1.90;1.80;;;;;;;2.90;40.82;95015.72;5056558;28;20416;-74
2021/12/21 12:43:16;;;;;;;2.20;2.00;;;;;;;3.17;40.63;95014.16;5065884;28;20795;-73
2021/12/21 12:46:04;;;;;;;2.57;2.37;;;;;;;2.73;41.31;95005.13;5058772;28;20422;-73
2021/12/21 12:48:37;;;;;;;5.13;2.87;;;;;;;3.30;41.04;95012.94;5058602;28;20451;-73
2021/12/21 12:51:04;;;;;;;3.00;2.27;;;;;;;3.29;40.61;95010.47;5057783;28;20445;-74
2021/12/21 12:53:43;;;;;;;1.60;1.50;;;;;;;3.10;40.14;95006.16;5057411;28;20466;-74
2021/12/21 12:56:12;;;;;;;2.43;2.23;;;;;;;3.49;39.70;95006.03;5058425;28;20477;-73
2021/12/21 12:58:50;;;;;;;4.40;3.47;;;;;;;3.56;40.18;95004.53;5058181;28;20434;-73
2021/12/21 13:01:24;;;;;;;2.10;1.90;;;;;;;3.29;40.31;94992.38;5059962;28;20459;-73
2021/12/21 13:03:51;;;;;;;5.03;3.40;;;;;;;3.48;40.31;95009.59;5057563;28;20916;-73
2021/12/21 13:06:20;;;;;;;2.77;2.60;;;;;;;3.28;40.20;95003.66;5082286;28;20421;-73